Terminal Aerodrome Forecast
Issued by NWS

Home | Current Version | Previous Version | Text Only | Print | Product List | Glossary On
Versions: 1 2 3 4 5 6 7 8 9 10 11 12 13 14 15 16
115
FTUS43 KILX 091733
TAFDEC
TAF
KDEC 091733Z 0918/1018 31008KT P6SM -SN BKN025
     FM100200 VRB03KT P6SM BKN090
     FM101200 17004KT P6SM SCT120=

USA.gov is the U.S. government's official web portal to all federal, state and local government web resources and services.